sensor_id;sensor_type;location;lat;lon;timestamp;pressure;altitude;pressure_sealevel;temperature;humidity
16821;BME280;8527;49.740;6.604;2023-02-03T00:01:29;101055.72;;;6.93;100.00
16821;BME280;8527;49.740;6.604;2023-02-03T00:06:35;101058.38;;;6.93;100.00
16821;BME280;8527;49.740;6.604;2023-02-03T00:11:43;101043.25;;;6.95;100.00
16821;BME280;8527;49.740;6.604;2023-02-03T00:16:49;101028.38;;;6.94;100.00
16821;BME280;8527;49.740;6.604;2023-02-03T00:21:51;101045.31;;;6.91;100.00
16821;BME280;8527;49.740;6.604;2023-02-03T00:26:49;101040.75;;;6.93;100.00
16821;BME280;8527;49.740;6.604;2023-02-03T00:31:51;101055.00;;;6.90;100.00
16821;BME280;8527;49.740;6.604;2023-02-03T00:36:52;101044.59;;;6.89;100.00
16821;BME280;8527;49.740;6.604;2023-02-03T00:41:50;101023.56;;;6.87;100.00
16821;BME280;8527;49.740;6.604;2023-02-03T00:46:49;101032.94;;;6.92;100.00
16821;BME280;8527;49.740;6.604;2023-02-03T00:51:47;101032.22;;;6.89;100.00
16821;BME280;8527;49.740;6.604;2023-02-03T00:56:49;101027.66;;;6.92;100.00
16821;BME280;8527;49.740;6.604;2023-02-03T01:01:53;101014.38;;;6.93;100.00
16821;BME280;8527;49.740;6.604;2023-02-03T01:06:54;101012.94;;;6.89;100.00
16821;BME280;8527;49.740;6.604;2023-02-03T01:12:00;101007.75;;;6.87;100.00
16821;BME280;8527;49.740;6.604;2023-02-03T01:16:59;100984.13;;;6.86;100.00
16821;BME280;8527;49.740;6.604;2023-02-03T01:21:57;100946.94;;;6.78;100.00
16821;BME280;8527;49.740;6.604;2023-02-03T01:27:04;100940.09;;;6.75;100.00
16821;BME280;8527;49.740;6.604;2023-02-03T01:32:05;100952.53;;;6.73;100.00
16821;BME280;8527;49.740;6.604;2023-02-03T01:37:03;100957.69;;;6.74;100.00
16821;BME280;8527;49.740;6.604;2023-02-03T01:42:14;100952.31;;;6.76;100.00
16821;BME280;8527;49.740;6.604;2023-02-03T01:47:16;100942.63;;;6.77;100.00
16821;BME280;8527;49.740;6.604;2023-02-03T01:52:16;100962.00;;;6.75;100.00
16821;BME280;8527;49.740;6.604;2023-02-03T01:57:29;100956.00;;;6.73;100.00
16821;BME280;8527;49.740;6.604;2023-02-03T02:02:31;100950.72;;;6.73;100.00
16821;BME280;8527;49.740;6.604;2023-02-03T02:07:30;100961.06;;;6.77;100.00
16821;BME280;8527;49.740;6.604;2023-02-03T02:12:32;100955.56;;;6.80;100.00
16821;BME280;8527;49.740;6.604;2023-02-03T02:23:16;100956.28;;;6.82;100.00
16821;BME280;8527;49.740;6.604;2023-02-03T02:28:55;100957.13;;;6.82;100.00
16821;BME280;8527;49.740;6.604;2023-02-03T02:34:12;100960.59;;;6.83;100.00
16821;BME280;8527;49.740;6.604;2023-02-03T02:39:14;100989.72;;;6.81;100.00
16821;BME280;8527;49.740;6.604;2023-02-03T02:44:26;101001.13;;;6.82;100.00
16821;BME280;8527;49.740;6.604;2023-02-03T02:49:32;100984.97;;;6.86;100.00
16821;BME280;8527;49.740;6.604;2023-02-03T02:54:41;100972.59;;;6.87;100.00
16821;BME280;8527;49.740;6.604;2023-02-03T02:59:46;100981.38;;;6.87;100.00
16821;BME280;8527;49.740;6.604;2023-02-03T03:04:51;100978.72;;;6.87;100.00
16821;BME280;8527;49.740;6.604;2023-02-03T03:09:52;100975.25;;;6.87;100.00
16821;BME280;8527;49.740;6.604;2023-02-03T03:14:55;100968.41;;;6.84;100.00
16821;BME280;8527;49.740;6.604;2023-02-03T03:20:03;100973.69;;;6.84;100.00
16821;BME280;8527;49.740;6.604;2023-02-03T03:25:08;100968.41;;;6.84;100.00
16821;BME280;8527;49.740;6.604;2023-02-03T03:30:11;100972.00;;;6.83;100.00
16821;BME280;8527;49.740;6.604;2023-02-03T03:35:19;100967.31;;;6.87;100.00
16821;BME280;8527;49.740;6.604;2023-02-03T03:40:21;100950.91;;;6.83;100.00
16821;BME280;8527;49.740;6.604;2023-02-03T03:45:24;100962.38;;;6.82;100.00
16821;BME280;8527;49.740;6.604;2023-02-03T03:50:29;100954.59;;;6.81;100.00
16821;BME280;8527;49.740;6.604;2023-02-03T03:55:30;100951.00;;;6.82;100.00
16821;BME280;8527;49.740;6.604;2023-02-03T04:00:33;100969.25;;;6.85;100.00
16821;BME280;8527;49.740;6.604;2023-02-03T04:05:37;100986.88;;;6.84;100.00
16821;BME280;8527;49.740;6.604;2023-02-03T04:10:38;100997.44;;;6.84;100.00
16821;BME280;8527;49.740;6.604;2023-02-03T04:15:37;101009.44;;;6.88;100.00
16821;BME280;8527;49.740;6.604;2023-02-03T04:20:41;101001.53;;;6.88;100.00
16821;BME280;8527;49.740;6.604;2023-02-03T04:25:43;100994.78;;;6.84;100.00
16821;BME280;8527;49.740;6.604;2023-02-03T04:30:45;101014.72;;;6.88;100.00
16821;BME280;8527;49.740;6.604;2023-02-03T04:35:49;101011.44;;;6.85;100.00
16821;BME280;8527;49.740;6.604;2023-02-03T04:40:53;101020.09;;;6.87;100.00
16821;BME280;8527;49.740;6.604;2023-02-03T04:45:52;101020.22;;;6.85;100.00
16821;BME280;8527;49.740;6.604;2023-02-03T04:51:00;101004.59;;;6.82;100.00
16821;BME280;8527;49.740;6.604;2023-02-03T04:55:59;100983.97;;;6.76;100.00
16821;BME280;8527;49.740;6.604;2023-02-03T05:01:05;100989.66;;;6.70;100.00
16821;BME280;8527;49.740;6.604;2023-02-03T05:06:18;101002.13;;;6.68;100.00
16821;BME280;8527;49.740;6.604;2023-02-03T05:11:19;100990.75;;;6.67;100.00
16821;BME280;8527;49.740;6.604;2023-02-03T05:16:17;100961.13;;;6.64;100.00
16821;BME280;8527;49.740;6.604;2023-02-03T05:21:18;100957.53;;;6.65;100.00
16821;BME280;8527;49.740;6.604;2023-02-03T05:26:25;100933.06;;;6.63;100.00
16821;BME280;8527;49.740;6.604;2023-02-03T05:31:24;100955.63;;;6.67;100.00
16821;BME280;8527;49.740;6.604;2023-02-03T05:36:25;100957.28;;;6.68;100.00
16821;BME280;8527;49.740;6.604;2023-02-03T05:41:24;100948.56;;;6.67;100.00
16821;BME280;8527;49.740;6.604;2023-02-03T05:46:35;100953.84;;;6.67;100.00
16821;BME280;8527;49.740;6.604;2023-02-03T05:51:38;100947.84;;;6.65;100.00
16821;BME280;8527;49.740;6.604;2023-02-03T05:56:37;100960.56;;;6.71;100.00
16821;BME280;8527;49.740;6.604;2023-02-03T06:01:41;100963.19;;;6.71;100.00
16821;BME280;8527;49.740;6.604;2023-02-03T06:06:44;100951.69;;;6.72;100.00
16821;BME280;8527;49.740;6.604;2023-02-03T06:11:43;100962.13;;;6.74;100.00
16821;BME280;8527;49.740;6.604;2023-02-03T06:16:41;100965.50;;;6.76;100.00
16821;BME280;8527;49.740;6.604;2023-02-03T06:21:42;100948.09;;;6.73;100.00
16821;BME280;8527;49.740;6.604;2023-02-03T06:26:40;100934.09;;;6.73;100.00
16821;BME280;8527;49.740;6.604;2023-02-03T06:31:39;100948.00;;;6.75;100.00
16821;BME280;8527;49.740;6.604;2023-02-03T06:36:37;100948.09;;;6.73;100.00
16821;BME280;8527;49.740;6.604;2023-02-03T06:41:38;100956.72;;;6.75;100.00
16821;BME280;8527;49.740;6.604;2023-02-03T06:46:36;100961.81;;;6.79;100.00
16821;BME280;8527;49.740;6.604;2023-02-03T06:51:35;100955.81;;;6.77;100.00
16821;BME280;8527;49.740;6.604;2023-02-03T06:56:35;100972.22;;;6.80;100.00
16821;BME280;8527;49.740;6.604;2023-02-03T07:01:38;100995.94;;;6.80;100.00
16821;BME280;8527;49.740;6.604;2023-02-03T07:06:39;100984.44;;;6.81;100.00
16821;BME280;8527;49.740;6.604;2023-02-03T07:11:38;100991.63;;;6.79;100.00
16821;BME280;8527;49.740;6.604;2023-02-03T07:16:39;101006.50;;;6.80;100.00
16821;BME280;8527;49.740;6.604;2023-02-03T07:21:44;101014.22;;;6.83;100.00
16821;BME280;8527;49.740;6.604;2023-02-03T07:26:44;101001.75;;;6.85;100.00
16821;BME280;8527;49.740;6.604;2023-02-03T07:31:45;101030.44;;;6.90;100.00
16821;BME280;8527;49.740;6.604;2023-02-03T07:36:43;101041.00;;;6.90;100.00
16821;BME280;8527;49.740;6.604;2023-02-03T07:41:41;101040.13;;;6.89;100.00
16821;BME280;8527;49.740;6.604;2023-02-03T07:46:40;101051.31;;;6.93;100.00
16821;BME280;8527;49.740;6.604;2023-02-03T07:51:42;101049.00;;;6.88;100.00
16821;BME280;8527;49.740;6.604;2023-02-03T07:56:41;101034.13;;;6.87;100.00
16821;BME280;8527;49.740;6.604;2023-02-03T08:01:40;101039.63;;;6.84;100.00
16821;BME280;8527;49.740;6.604;2023-02-03T08:06:42;101029.19;;;6.83;100.00
16821;BME280;8527;49.740;6.604;2023-02-03T08:11:40;101042.47;;;6.81;100.00
16821;BME280;8527;49.740;6.604;2023-02-03T08:16:39;101046.69;;;6.84;100.00
16821;BME280;8527;49.740;6.604;2023-02-03T08:21:37;101026.56;;;6.83;100.00
16821;BME280;8527;49.740;6.604;2023-02-03T08:26:41;101025.69;;;6.82;100.00
16821;BME280;8527;49.740;6.604;2023-02-03T08:31:40;101031.50;;;6.87;100.00
16821;BME280;8527;49.740;6.604;2023-02-03T08:36:39;101033.91;;;6.90;100.00
16821;BME280;8527;49.740;6.604;2023-02-03T08:41:43;101018.22;;;7.00;100.00
16821;BME280;8527;49.740;6.604;2023-02-03T08:46:41;101038.31;;;7.14;100.00
16821;BME280;8527;49.740;6.604;2023-02-03T08:51:40;101041.09;;;7.24;100.00
16821;BME280;8527;49.740;6.604;2023-02-03T08:56:43;101030.22;;;7.29;100.00
16821;BME280;8527;49.740;6.604;2023-02-03T09:01:42;101067.69;;;7.34;100.00
16821;BME280;8527;49.740;6.604;2023-02-03T09:06:42;101058.66;;;7.37;100.00
16821;BME280;8527;49.740;6.604;2023-02-03T09:11:44;101060.09;;;7.29;100.00
16821;BME280;8527;49.740;6.604;2023-02-03T09:16:46;101085.53;;;7.30;100.00
16821;BME280;8527;49.740;6.604;2023-02-03T09:21:50;101085.19;;;7.35;100.00
16821;BME280;8527;49.740;6.604;2023-02-03T09:26:52;101064.81;;;7.37;100.00
16821;BME280;8527;49.740;6.604;2023-02-03T09:31:50;101069.59;;;7.43;100.00
16821;BME280;8527;49.740;6.604;2023-02-03T09:36:49;101059.06;;;7.43;100.00
16821;BME280;8527;49.740;6.604;2023-02-03T09:42:05;101041.69;;;7.52;100.00
16821;BME280;8527;49.740;6.604;2023-02-03T09:47:10;101043.38;;;7.53;100.00
16821;BME280;8527;49.740;6.604;2023-02-03T09:52:16;101047.72;;;7.66;100.00
16821;BME280;8527;49.740;6.604;2023-02-03T09:57:20;101043.63;;;7.73;100.00
16821;BME280;8527;49.740;6.604;2023-02-03T10:02:30;101034.03;;;7.72;100.00
16821;BME280;8527;49.740;6.604;2023-02-03T10:07:34;101010.38;;;7.82;100.00
16821;BME280;8527;49.740;6.604;2023-02-03T10:12:49;101023.97;;;8.00;100.00
16821;BME280;8527;49.740;6.604;2023-02-03T10:17:52;101008.81;;;8.13;100.00
16821;BME280;8527;49.740;6.604;2023-02-03T10:22:56;101011.09;;;8.18;100.00
16821;BME280;8527;49.740;6.604;2023-02-03T10:28:04;101031.53;;;8.27;100.00
16821;BME280;8527;49.740;6.604;2023-02-03T10:33:10;101019.28;;;8.26;100.00
16821;BME280;8527;49.740;6.604;2023-02-03T10:38:20;101006.16;;;8.25;100.00
16821;BME280;8527;49.740;6.604;2023-02-03T10:43:28;101012.28;;;8.37;100.00
16821;BME280;8527;49.740;6.604;2023-02-03T10:48:41;101005.31;;;8.47;100.00
16821;BME280;8527;49.740;6.604;2023-02-03T10:53:39;100993.88;;;8.47;100.00
16821;BME280;8527;49.740;6.604;2023-02-03T10:58:47;100991.72;;;8.52;99.84
16821;BME280;8527;49.740;6.604;2023-02-03T11:03:57;100996.66;;;8.56;99.74
16821;BME280;8527;49.740;6.604;2023-02-03T11:08:56;100999.81;;;8.50;99.19
16821;BME280;8527;49.740;6.604;2023-02-03T11:14:10;101007.22;;;8.56;98.97
16821;BME280;8527;49.740;6.604;2023-02-03T11:19:15;100992.69;;;8.51;97.85
16821;BME280;8527;49.740;6.604;2023-02-03T11:24:19;101006.63;;;8.53;97.76
16821;BME280;8527;49.740;6.604;2023-02-03T11:29:23;101009.16;;;8.54;97.29
16821;BME280;8527;49.740;6.604;2023-02-03T11:34:28;100997.75;;;8.54;97.04
16821;BME280;8527;49.740;6.604;2023-02-03T11:39:28;100985.69;;;8.61;96.48
16821;BME280;8527;49.740;6.604;2023-02-03T11:44:32;100975.13;;;8.61;96.27
16821;BME280;8527;49.740;6.604;2023-02-03T11:49:50;100971.97;;;8.67;94.75
16821;BME280;8527;49.740;6.604;2023-02-03T11:54:58;100990.84;;;8.74;94.72
16821;BME280;8527;49.740;6.604;2023-02-03T12:00:14;101000.19;;;8.78;94.71
16821;BME280;8527;49.740;6.604;2023-02-03T12:05:39;100999.22;;;8.79;94.63
16821;BME280;8527;49.740;6.604;2023-02-03T12:10:50;101014.41;;;8.77;93.46
16821;BME280;8527;49.740;6.604;2023-02-03T12:16:08;101008.59;;;8.83;93.96
16821;BME280;8527;49.740;6.604;2023-02-03T12:21:26;100991.75;;;8.84;92.92
16821;BME280;8527;49.740;6.604;2023-02-03T12:26:33;101005.53;;;8.99;93.03
16821;BME280;8527;49.740;6.604;2023-02-03T12:31:38;101007.78;;;9.04;92.43
16821;BME280;8527;49.740;6.604;2023-02-03T12:36:44;101002.94;;;9.09;92.20
16821;BME280;8527;49.740;6.604;2023-02-03T12:41:54;100999.53;;;9.19;91.83
16821;BME280;8527;49.740;6.604;2023-02-03T12:47:01;100980.50;;;9.25;91.56
16821;BME280;8527;49.740;6.604;2023-02-03T12:52:06;100972.66;;;9.45;91.93
16821;BME280;8527;49.740;6.604;2023-02-03T12:57:19;100960.91;;;9.59;91.57
16821;BME280;8527;49.740;6.604;2023-02-03T13:02:26;100957.59;;;9.66;91.55
16821;BME280;8527;49.740;6.604;2023-02-03T13:07:30;100946.78;;;9.58;90.56
16821;BME280;8527;49.740;6.604;2023-02-03T13:12:34;100954.44;;;9.51;92.45
16821;BME280;8527;49.740;6.604;2023-02-03T13:17:42;100960.19;;;9.56;92.21
16821;BME280;8527;49.740;6.604;2023-02-03T13:22:43;100983.53;;;9.41;92.97
16821;BME280;8527;49.740;6.604;2023-02-03T13:27:47;100978.72;;;9.35;93.29
16821;BME280;8527;49.740;6.604;2023-02-03T13:33:10;100973.84;;;9.31;93.19
16821;BME280;8527;49.740;6.604;2023-02-03T13:38:50;100969.75;;;9.26;93.33
16821;BME280;8527;49.740;6.604;2023-02-03T13:43:56;100971.25;;;9.19;93.74
16821;BME280;8527;49.740;6.604;2023-02-03T13:49:00;100955.75;;;9.14;93.83
16821;BME280;8527;49.740;6.604;2023-02-03T13:54:01;100945.88;;;9.17;93.74
16821;BME280;8527;49.740;6.604;2023-02-03T13:59:04;100929.41;;;9.13;94.16
16821;BME280;8527;49.740;6.604;2023-02-03T14:04:07;100944.63;;;9.21;94.86
16821;BME280;8527;49.740;6.604;2023-02-03T14:09:19;100951.06;;;9.18;94.90
16821;BME280;8527;49.740;6.604;2023-02-03T14:19:55;100957.13;;;9.09;96.24
16821;BME280;8527;49.740;6.604;2023-02-03T14:24:55;100949.75;;;9.12;96.41
16821;BME280;8527;49.740;6.604;2023-02-03T14:30:07;100953.63;;;9.08;96.41
16821;BME280;8527;49.740;6.604;2023-02-03T14:35:14;100957.75;;;9.01;96.83
16821;BME280;8527;49.740;6.604;2023-02-03T14:40:27;100958.97;;;8.97;97.69
16821;BME280;8527;49.740;6.604;2023-02-03T14:45:37;100952.63;;;8.88;98.13
16821;BME280;8527;49.740;6.604;2023-02-03T14:50:52;100967.09;;;8.84;98.46
16821;BME280;8527;49.740;6.604;2023-02-03T14:56:06;100963.75;;;8.82;99.10
16821;BME280;8527;49.740;6.604;2023-02-03T15:01:22;100963.03;;;8.80;99.18
16821;BME280;8527;49.740;6.604;2023-02-03T15:06:40;100975.78;;;8.75;99.72
16821;BME280;8527;49.740;6.604;2023-02-03T15:11:43;100984.94;;;8.70;99.91
16821;BME280;8527;49.740;6.604;2023-02-03T15:16:42;100978.81;;;8.70;100.00
16821;BME280;8527;49.740;6.604;2023-02-03T15:21:44;100986.88;;;8.68;100.00
16821;BME280;8527;49.740;6.604;2023-02-03T15:26:46;100995.06;;;8.65;100.00
16821;BME280;8527;49.740;6.604;2023-02-03T15:31:48;100988.59;;;8.58;100.00
16821;BME280;8527;49.740;6.604;2023-02-03T15:36:54;100986.91;;;8.57;100.00
16821;BME280;8527;49.740;6.604;2023-02-03T15:41:55;100993.78;;;8.60;100.00
16821;BME280;8527;49.740;6.604;2023-02-03T15:46:55;100985.69;;;8.50;100.00
16821;BME280;8527;49.740;6.604;2023-02-03T15:51:59;100992.31;;;8.44;100.00
16821;BME280;8527;49.740;6.604;2023-02-03T15:57:05;101002.69;;;8.36;100.00
16821;BME280;8527;49.740;6.604;2023-02-03T16:02:13;101019.72;;;8.43;100.00
16821;BME280;8527;49.740;6.604;2023-02-03T16:07:20;101031.63;;;8.37;100.00
16821;BME280;8527;49.740;6.604;2023-02-03T16:12:22;101044.38;;;8.32;100.00
16821;BME280;8527;49.740;6.604;2023-02-03T16:17:29;101046.19;;;8.31;100.00
16821;BME280;8527;49.740;6.604;2023-02-03T16:22:38;101030.81;;;8.25;100.00
16821;BME280;8527;49.740;6.604;2023-02-03T16:27:37;101028.53;;;8.21;100.00
16821;BME280;8527;49.740;6.604;2023-02-03T16:32:35;101040.06;;;8.20;100.00
16821;BME280;8527;49.740;6.604;2023-02-03T16:37:49;101032.84;;;8.10;100.00
16821;BME280;8527;49.740;6.604;2023-02-03T16:43:00;101053.91;;;8.12;100.00
16821;BME280;8527;49.740;6.604;2023-02-03T16:48:14;101046.94;;;8.11;100.00
16821;BME280;8527;49.740;6.604;2023-02-03T16:53:29;101052.22;;;8.11;100.00
16821;BME280;8527;49.740;6.604;2023-02-03T16:58:28;101064.81;;;8.07;100.00
16821;BME280;8527;49.740;6.604;2023-02-03T17:03:30;101068.19;;;8.09;100.00
16821;BME280;8527;49.740;6.604;2023-02-03T17:08:33;101068.66;;;8.03;100.00
16821;BME280;8527;49.740;6.604;2023-02-03T17:13:32;101068.66;;;8.03;100.00
16821;BME280;8527;49.740;6.604;2023-02-03T17:18:32;101076.94;;;7.98;100.00
16821;BME280;8527;49.740;6.604;2023-02-03T17:23:33;101073.97;;;8.03;100.00
16821;BME280;8527;49.740;6.604;2023-02-03T17:28:32;101073.09;;;8.02;100.00
16821;BME280;8527;49.740;6.604;2023-02-03T17:33:32;101070.72;;;7.99;100.00
16821;BME280;8527;49.740;6.604;2023-02-03T17:38:35;101082.94;;;8.00;100.00
16821;BME280;8527;49.740;6.604;2023-02-03T17:43:37;101078.75;;;7.98;100.00
16821;BME280;8527;49.740;6.604;2023-02-03T17:48:38;101080.41;;;7.99;100.00
16821;BME280;8527;49.740;6.604;2023-02-03T17:53:40;101095.22;;;8.01;100.00
16821;BME280;8527;49.740;6.604;2023-02-03T17:58:41;101093.38;;;8.02;100.00
16821;BME280;8527;49.740;6.604;2023-02-03T18:03:40;101097.50;;;8.06;100.00
16821;BME280;8527;49.740;6.604;2023-02-03T18:08:41;101102.88;;;8.05;100.00
16821;BME280;8527;49.740;6.604;2023-02-03T18:13:41;101098.56;;;8.03;100.00
16821;BME280;8527;49.740;6.604;2023-02-03T18:18:41;101097.75;;;8.03;100.00
16821;BME280;8527;49.740;6.604;2023-02-03T18:23:45;101098.47;;;8.05;100.00
16821;BME280;8527;49.740;6.604;2023-02-03T18:28:44;101112.03;;;8.12;100.00
16821;BME280;8527;49.740;6.604;2023-02-03T18:33:47;101098.94;;;8.10;100.00
16821;BME280;8527;49.740;6.604;2023-02-03T18:38:48;101100.75;;;8.10;100.00
16821;BME280;8527;49.740;6.604;2023-02-03T18:43:49;101109.41;;;8.12;100.00
16821;BME280;8527;49.740;6.604;2023-02-03T18:48:47;101114.19;;;8.07;100.00
16821;BME280;8527;49.740;6.604;2023-02-03T18:53:50;101122.13;;;8.07;100.00
16821;BME280;8527;49.740;6.604;2023-02-03T18:58:48;101123.59;;;8.11;100.00
16821;BME280;8527;49.740;6.604;2023-02-03T19:03:47;101129.81;;;8.10;100.00
16821;BME280;8527;49.740;6.604;2023-02-03T19:08:49;101131.50;;;8.11;100.00
16821;BME280;8527;49.740;6.604;2023-02-03T19:13:47;101146.41;;;8.12;100.00
16821;BME280;8527;49.740;6.604;2023-02-03T19:18:48;101140.97;;;8.13;100.00
16821;BME280;8527;49.740;6.604;2023-02-03T19:23:50;101157.69;;;8.14;100.00
16821;BME280;8527;49.740;6.604;2023-02-03T19:28:52;101156.63;;;8.16;100.00
16821;BME280;8527;49.740;6.604;2023-02-03T19:33:55;101150.59;;;8.14;100.00
16821;BME280;8527;49.740;6.604;2023-02-03T19:38:57;101163.59;;;8.18;100.00
16821;BME280;8527;49.740;6.604;2023-02-03T19:43:57;101179.47;;;8.18;100.00
16821;BME280;8527;49.740;6.604;2023-02-03T19:49:00;101180.91;;;8.22;100.00
16821;BME280;8527;49.740;6.604;2023-02-03T19:54:03;101181.38;;;8.15;100.00
16821;BME280;8527;49.740;6.604;2023-02-03T19:59:01;101179.91;;;8.11;100.00
16821;BME280;8527;49.740;6.604;2023-02-03T20:04:00;101180.78;;;8.12;100.00
16821;BME280;8527;49.740;6.604;2023-02-03T20:08:58;101193.38;;;8.08;100.00
16821;BME280;8527;49.740;6.604;2023-02-03T20:14:01;101187.59;;;8.03;100.00
16821;BME280;8527;49.740;6.604;2023-02-03T20:18:59;101190.81;;;8.07;100.00
16821;BME280;8527;49.740;6.604;2023-02-03T20:23:58;101191.94;;;8.04;100.00
16821;BME280;8527;49.740;6.604;2023-02-03T20:28:56;101197.06;;;8.06;100.00
16821;BME280;8527;49.740;6.604;2023-02-03T20:33:58;101202.25;;;8.07;100.00
16821;BME280;8527;49.740;6.604;2023-02-03T20:38:56;101197.69;;;8.09;100.00
16821;BME280;8527;49.740;6.604;2023-02-03T20:43:55;101208.50;;;8.06;100.00
16821;BME280;8527;49.740;6.604;2023-02-03T20:48:53;101211.16;;;8.06;100.00
16821;BME280;8527;49.740;6.604;2023-02-03T20:53:54;101205.13;;;8.04;100.00
16821;BME280;8527;49.740;6.604;2023-02-03T20:58:54;101196.59;;;8.00;100.00
16821;BME280;8527;49.740;6.604;2023-02-03T21:03:52;101205.13;;;8.04;100.00
16821;BME280;8527;49.740;6.604;2023-02-03T21:09:12;101198.91;;;8.05;100.00
16821;BME280;8527;49.740;6.604;2023-02-03T21:14:20;101201.75;;;8.02;100.00
16821;BME280;8527;49.740;6.604;2023-02-03T21:19:27;101203.47;;;8.03;100.00
16821;BME280;8527;49.740;6.604;2023-02-03T21:24:31;101198.28;;;8.01;100.00
16821;BME280;8527;49.740;6.604;2023-02-03T21:29:33;101205.25;;;8.02;100.00
16821;BME280;8527;49.740;6.604;2023-02-03T21:34:32;101203.56;;;8.01;100.00
16821;BME280;8527;49.740;6.604;2023-02-03T21:39:34;101208.13;;;7.99;100.00
16821;BME280;8527;49.740;6.604;2023-02-03T21:44:34;101205.97;;;8.05;100.00
16821;BME280;8527;49.740;6.604;2023-02-03T21:49:36;101203.47;;;8.03;100.00
16821;BME280;8527;49.740;6.604;2023-02-03T21:54:39;101206.81;;;8.05;100.00
16821;BME280;8527;49.740;6.604;2023-02-03T21:59:39;101195.41;;;8.05;100.00
16821;BME280;8527;49.740;6.604;2023-02-03T22:04:41;101209.13;;;8.10;100.00
16821;BME280;8527;49.740;6.604;2023-02-03T22:09:42;101200.69;;;8.05;100.00
16821;BME280;8527;49.740;6.604;2023-02-03T22:14:48;101209.34;;;8.07;100.00
16821;BME280;8527;49.740;6.604;2023-02-03T22:19:47;101210.81;;;8.11;100.00
16821;BME280;8527;49.740;6.604;2023-02-03T22:24:50;101215.34;;;8.09;100.00
16821;BME280;8527;49.740;6.604;2023-02-03T22:29:49;101219.69;;;8.10;100.00
16821;BME280;8527;49.740;6.604;2023-02-03T22:34:50;101226.03;;;8.07;100.00
16821;BME280;8527;49.740;6.604;2023-02-03T22:39:51;101234.59;;;8.11;100.00
16821;BME280;8527;49.740;6.604;2023-02-03T22:44:49;101242.63;;;8.09;100.00
16821;BME280;8527;49.740;6.604;2023-02-03T22:49:50;101229.41;;;8.09;100.00
16821;BME280;8527;49.740;6.604;2023-02-03T22:54:54;101237.25;;;8.11;100.00
16821;BME280;8527;49.740;6.604;2023-02-03T22:59:53;101238.78;;;8.13;100.00
16821;BME280;8527;49.740;6.604;2023-02-03T23:04:51;101241.56;;;8.12;100.00
16821;BME280;8527;49.740;6.604;2023-02-03T23:09:58;101242.28;;;8.14;100.00
16821;BME280;8527;49.740;6.604;2023-02-03T23:14:59;101240.47;;;8.14;100.00
16821;BME280;8527;49.740;6.604;2023-02-03T23:20:00;101256.84;;;8.20;100.00
16821;BME280;8527;49.740;6.604;2023-02-03T23:25:01;101248.06;;;8.19;100.00
16821;BME280;8527;49.740;6.604;2023-02-03T23:29:59;101257.56;;;8.22;100.00
16821;BME280;8527;49.740;6.604;2023-02-03T23:35:03;101261.16;;;8.21;100.00
16821;BME280;8527;49.740;6.604;2023-02-03T23:40:19;101249.88;;;8.19;100.00
16821;BME280;8527;49.740;6.604;2023-02-03T23:45:30;101264.06;;;8.18;100.00
16821;BME280;8527;49.740;6.604;2023-02-03T23:50:29;101256.94;;;8.18;100.00
16821;BME280;8527;49.740;6.604;2023-02-03T23:55:39;101270.88;;;8.20;100.00
